Time;durP1;ratioP1;P1;durP2;ratioP2;P2;SDS_P1;SDS_P2;PMS_P1;PMS_P2;Temp;Humidity;BMP_temperature;BMP_pressure;BME280_temperature;BME280_humidity;BME280_pressure;Samples;Min_cycle;Max_cycle;Signal;HPM_P1;HPM_P2
2022/01/26 00:07:15;;;;;;;22.70;13.23;;;4.90;75.30;;;;;;5070160;28;20219;-82
2022/01/26 00:09:43;;;;;;;20.70;14.07;;;4.90;75.10;;;;;;5070356;28;20970;-83
2022/01/26 00:12:12;;;;;;;25.10;12.70;;;4.90;75.30;;;;;;5070535;28;20189;-83
2022/01/26 00:14:42;;;;;;;24.65;13.27;;;5.20;76.80;;;;;;5064751;28;20747;-82
2022/01/26 00:17:12;;;;;;;19.63;11.88;;;5.00;79.90;;;;;;5074640;28;20218;-82
2022/01/26 00:19:50;;;;;;;22.60;13.35;;;5.00;78.10;;;;;;5065843;28;20262;-82
2022/01/26 00:22:38;;;;;;;20.50;13.20;;;5.00;78.50;;;;;;5071493;28;20318;-83
2022/01/26 00:25:22;;;;;;;23.70;12.70;;;5.00;80.70;;;;;;5074912;28;20478;-82
2022/01/26 00:27:54;;;;;;;26.02;13.85;;;4.90;79.40;;;;;;5068743;28;20539;-81
2022/01/26 00:34:18;;;;;;;20.87;11.47;;;5.00;80.70;;;;;;5066887;28;20459;-82
2022/01/26 00:38:48;;;;;;;16.58;10.85;;;4.90;80.30;;;;;;5065990;28;20581;-81
2022/01/26 00:41:21;;;;;;;16.98;10.70;;;4.90;81.00;;;;;;5070413;28;20205;-81
2022/01/26 00:43:54;;;;;;;20.58;11.30;;;4.90;77.90;;;;;;5067604;28;20281;-81
2022/01/26 00:46:23;;;;;;;18.80;11.77;;;5.00;74.30;;;;;;5068237;28;20221;-83
2022/01/26 00:48:52;;;;;;;20.38;11.50;;;4.80;74.70;;;;;;5067482;28;20459;-81
2022/01/26 00:51:22;;;;;;;15.48;11.23;;;4.80;75.00;;;;;;5065655;28;20635;-80
2022/01/26 00:53:59;;;;;;;18.50;10.45;;;4.80;72.80;;;;;;5071421;28;20603;-83
2022/01/26 00:56:29;;;;;;;17.92;10.02;;;4.80;71.70;;;;;;5056347;28;20223;-85
2022/01/26 00:58:59;;;;;;;20.00;10.30;;;4.70;68.80;;;;;;5075116;28;20212;-85
2022/01/26 01:01:28;;;;;;;14.33;10.40;;;4.80;71.20;;;;;;5068776;28;20996;-85
2022/01/26 01:03:57;;;;;;;18.90;10.73;;;4.70;67.90;;;;;;5067765;28;20525;-84
2022/01/26 01:06:27;;;;;;;19.17;11.23;;;4.80;69.50;;;;;;5064013;28;20220;-84
2022/01/26 01:08:58;;;;;;;20.88;12.20;;;4.70;67.80;;;;;;5070514;28;20196;-84
2022/01/26 01:11:27;;;;;;;19.30;10.88;;;4.70;67.30;;;;;;5063364;28;20644;-84
2022/01/26 01:13:56;;;;;;;17.15;10.68;;;4.90;65.00;;;;;;5072708;28;20204;-84
2022/01/26 01:16:24;;;;;;;25.70;11.77;;;4.60;65.40;;;;;;5068877;28;20220;-83
2022/01/26 01:19:00;;;;;;;19.33;11.30;;;4.60;69.00;;;;;;5064520;28;20455;-84
2022/01/26 01:29:59;;;;;;;19.77;12.13;;;4.60;65.80;;;;;;5050646;28;20208;-83
2022/01/26 01:32:36;;;;;;;22.98;11.50;;;4.60;65.00;;;;;;5070365;28;20225;-83
2022/01/26 01:35:08;;;;;;;20.05;11.50;;;4.60;82.30;;;;;;5060026;28;20530;-83
2022/01/26 01:37:36;;;;;;;22.20;12.30;;;4.60;64.20;;;;;;5066160;28;20283;-83
2022/01/26 01:40:07;;;;;;;25.63;12.63;;;4.60;64.70;;;;;;5070965;28;20223;-83
2022/01/26 01:42:36;;;;;;;18.58;12.02;;;4.60;62.10;;;;;;5085300;28;20203;-82
2022/01/26 01:45:06;;;;;;;22.80;12.50;;;4.70;66.40;;;;;;5070359;28;20219;-81
2022/01/26 01:47:34;;;;;;;18.35;10.60;;;4.70;64.30;;;;;;5066309;28;20224;-82
2022/01/26 01:50:08;;;;;;;18.65;12.18;;;5.00;64.20;;;;;;5066750;28;20208;-82
2022/01/26 01:52:36;;;;;;;19.50;11.53;;;4.60;63.60;;;;;;5069891;28;20211;-82
2022/01/26 01:55:07;;;;;;;22.88;12.23;;;4.60;62.40;;;;;;5071233;28;20457;-82
2022/01/26 01:57:35;;;;;;;24.83;11.95;;;4.60;63.30;;;;;;5063096;28;20307;-82
2022/01/26 02:00:05;;;;;;;21.85;13.43;;;4.60;64.70;;;;;;5067043;28;20204;-81
2022/01/26 02:02:33;;;;;;;20.90;11.15;;;4.70;64.60;;;;;;5064535;28;20210;-81
2022/01/26 02:05:03;;;;;;;18.65;12.20;;;4.60;63.50;;;;;;5064912;28;20209;-82
2022/01/26 02:07:31;;;;;;;17.83;11.18;;;4.70;66.10;;;;;;5069450;28;20220;-83
2022/01/26 02:10:01;;;;;;;22.40;12.50;;;4.70;66.70;;;;;;5072903;28;20867;-84
2022/01/26 02:12:33;;;;;;;19.00;12.15;;;4.90;66.00;;;;;;5070222;28;20198;-81
2022/01/26 02:15:09;;;;;;;19.98;12.50;;;4.60;64.20;;;;;;5071480;28;20191;-82
2022/01/26 02:18:00;;;;;;;15.23;9.80;;;4.60;63.20;;;;;;5061546;28;20212;-82
2022/01/26 02:21:08;;;;;;;16.90;10.30;;;4.70;62.90;;;;;;5068570;28;20201;-83
2022/01/26 02:56:50;;;;;;;14.70;8.32;;;4.40;68.60;;;;;;5038113;28;20232;-81
2022/01/26 02:59:51;;;;;;;16.90;10.20;;;4.60;69.80;;;;;;5072146;28;20202;-81
2022/01/26 03:02:31;;;;;;;17.10;9.40;;;4.40;70.10;;;;;;5068605;28;20646;-80
2022/01/26 03:05:02;;;;;;;18.98;10.02;;;4.60;68.40;;;;;;5072078;28;20208;-82
2022/01/26 03:07:40;;;;;;;14.20;9.13;;;4.40;70.30;;;;;;5070872;28;20217;-81
2022/01/26 03:10:18;;;;;;;16.38;9.45;;;4.60;72.40;;;;;;5070370;28;20198;-81
2022/01/26 03:12:51;;;;;;;13.73;9.88;;;4.40;75.30;;;;;;5069949;28;20203;-80
2022/01/26 03:15:24;;;;;;;19.75;10.75;;;4.30;75.40;;;;;;5071523;28;20195;-81
2022/01/26 03:18:22;;;;;;;16.08;10.23;;;4.30;74.60;;;;;;5067527;28;20216;-82
2022/01/26 03:20:53;;;;;;;14.40;9.43;;;4.40;77.20;;;;;;5072399;28;21659;-81
2022/01/26 03:29:12;;;;;;;19.85;10.52;;;4.50;81.50;;;;;;5071143;28;20692;-82
2022/01/26 03:32:35;;;;;;;22.20;10.75;;;4.70;81.50;;;;;;5065533;28;20245;-81
2022/01/26 03:34:54;;;;;;;12.10;9.13;;;4.40;79.80;;;;;;5077100;28;20203;-82
2022/01/26 03:37:27;;;;;;;16.63;9.60;;;4.60;80.10;;;;;;5074375;28;20238;-81
2022/01/26 03:39:55;;;;;;;20.13;8.80;;;4.40;82.40;;;;;;5072852;28;20211;-83
2022/01/26 03:42:25;;;;;;;14.07;8.65;;;4.30;80.70;;;;;;5071497;28;20203;-83
2022/01/26 03:44:53;;;;;;;12.23;8.15;;;4.40;84.00;;;;;;5076247;28;20238;-83
2022/01/26 03:47:21;;;;;;;10.80;7.60;;;4.40;86.20;;;;;;5074197;28;20874;-81
2022/01/26 03:49:49;;;;;;;13.32;7.18;;;4.50;86.90;;;;;;5064223;28;20208;-82
2022/01/26 03:52:18;;;;;;;11.25;7.35;;;4.20;85.10;;;;;;5068014;28;20203;-82
2022/01/26 03:54:47;;;;;;;11.73;7.57;;;4.30;90.80;;;;;;5075207;28;20793;-82
2022/01/26 03:57:15;;;;;;;17.65;8.38;;;4.20;90.20;;;;;;5071371;28;20221;-82
2022/01/26 03:59:44;;;;;;;10.10;7.20;;;4.20;89.20;;;;;;5070656;28;20205;-83
2022/01/26 04:02:13;;;;;;;16.00;8.40;;;4.20;87.40;;;;;;5070456;28;20204;-83
2022/01/26 04:04:47;;;;;;;11.27;7.50;;;4.20;87.60;;;;;;5067344;28;20189;-83
2022/01/26 04:07:15;;;;;;;11.75;8.27;;;4.20;88.50;;;;;;5067261;28;20228;-83
2022/01/26 04:09:43;;;;;;;11.27;7.45;;;4.30;88.20;;;;;;5055880;28;20285;-83
2022/01/26 04:12:12;;;;;;;13.45;7.57;;;4.30;86.80;;;;;;5068989;28;20203;-83
2022/01/26 04:14:43;;;;;;;12.38;7.53;;;4.30;87.10;;;;;;5071686;28;20196;-82
2022/01/26 04:17:13;;;;;;;9.18;6.47;;;4.60;85.60;;;;;;5070940;28;20232;-83
2022/01/26 04:19:41;;;;;;;11.45;7.38;;;4.30;84.70;;;;;;5070740;28;20207;-83
2022/01/26 04:22:16;;;;;;;11.52;6.80;;;4.20;83.20;;;;;;5071142;28;20204;-82
2022/01/26 04:24:48;;;;;;;16.92;7.20;;;4.20;82.30;;;;;;5069787;28;20208;-83
2022/01/26 04:27:22;;;;;;;15.57;6.43;;;4.20;83.40;;;;;;5072375;28;21044;-82
2022/01/26 04:29:51;;;;;;;11.38;6.80;;;4.20;82.60;;;;;;5064939;28;20232;-83
2022/01/26 04:32:21;;;;;;;11.38;7.22;;;3.80;80.70;;;;;;5069364;28;20206;-83
2022/01/26 04:34:49;;;;;;;13.35;8.10;;;4.20;85.40;;;;;;5065496;28;20386;-81
2022/01/26 04:37:29;;;;;;;13.43;6.15;;;4.20;82.80;;;;;;5071613;28;20216;-82
2022/01/26 04:40:01;;;;;;;12.68;7.07;;;4.20;82.40;;;;;;5068321;28;20264;-82
2022/01/26 04:42:38;;;;;;;11.07;7.35;;;4.20;82.50;;;;;;5065498;28;20200;-83
2022/01/26 04:45:09;;;;;;;10.68;7.10;;;4.30;82.80;;;;;;5066286;28;20224;-83
2022/01/26 04:47:40;;;;;;;10.43;6.82;;;4.20;80.60;;;;;;5075999;28;20707;-83
2022/01/26 04:50:11;;;;;;;17.55;10.65;;;4.20;81.50;;;;;;5064643;28;20460;-82
2022/01/26 04:52:40;;;;;;;14.88;7.20;;;4.10;81.90;;;;;;5069823;28;20659;-83
2022/01/26 04:55:09;;;;;;;11.68;7.85;;;4.10;85.40;;;;;;5067893;28;20216;-83
2022/01/26 04:57:38;;;;;;;12.57;7.80;;;4.20;83.10;;;;;;5073690;28;20598;-83
2022/01/26 05:00:08;;;;;;;14.23;7.47;;;4.30;85.20;;;;;;5061995;28;20206;-81
2022/01/26 05:02:36;;;;;;;11.45;6.88;;;4.20;82.40;;;;;;5069909;28;20196;-83
2022/01/26 05:05:07;;;;;;;11.30;7.55;;;4.30;84.40;;;;;;5064322;28;20197;-82
2022/01/26 05:07:35;;;;;;;13.85;6.07;;;4.10;81.10;;;;;;5046644;28;20229;-82
2022/01/26 05:10:04;;;;;;;11.88;6.50;;;4.10;82.40;;;;;;5059758;28;20203;-78
2022/01/26 05:12:34;;;;;;;12.60;5.68;;;4.10;85.30;;;;;;5084266;28;20202;-82
2022/01/26 05:15:02;;;;;;;10.77;7.05;;;4.10;82.80;;;;;;5070531;28;20202;-83
2022/01/26 05:17:30;;;;;;;11.63;6.93;;;4.30;84.20;;;;;;5068683;28;20227;-82
2022/01/26 05:20:00;;;;;;;12.43;6.85;;;3.90;80.20;;;;;;5065829;28;20205;-82
2022/01/26 05:22:31;;;;;;;11.85;6.40;;;3.80;81.20;;;;;;5049272;28;20190;-82
2022/01/26 05:25:00;;;;;;;11.23;6.07;;;3.80;84.10;;;;;;5065701;28;20251;-83
2022/01/26 05:27:28;;;;;;;10.95;6.10;;;3.70;87.30;;;;;;5072710;28;20219;-82
2022/01/26 05:29:56;;;;;;;14.43;7.03;;;3.80;98.50;;;;;;5047227;28;20566;-81
2022/01/26 05:32:24;;;;;;;12.88;6.75;;;3.80;91.20;;;;;;5067851;28;20286;-80
2022/01/26 05:34:53;;;;;;;14.45;6.85;;;3.90;91.10;;;;;;5062854;28;20211;-80
2022/01/26 05:37:21;;;;;;;11.77;6.95;;;3.90;91.20;;;;;;5066294;28;20731;-82
2022/01/26 05:39:51;;;;;;;13.13;6.30;;;4.00;92.80;;;;;;5068785;28;20212;-80
2022/01/26 05:42:19;;;;;;;13.20;8.25;;;4.00;92.90;;;;;;5075189;28;20798;-81
2022/01/26 05:44:47;;;;;;;11.43;7.30;;;4.00;94.20;;;;;;5056092;28;20204;-79
2022/01/26 05:47:19;;;;;;;15.07;7.10;;;4.10;95.40;;;;;;5067451;28;20217;-82
2022/01/26 05:49:47;;;;;;;15.38;7.30;;;4.30;93.60;;;;;;5063325;28;20218;-81
2022/01/26 05:52:16;;;;;;;12.65;6.13;;;4.10;92.90;;;;;;5064861;28;20756;-81
2022/01/26 05:54:44;;;;;;;12.48;7.28;;;4.20;93.60;;;;;;5074136;28;20209;-81
2022/01/26 05:57:13;;;;;;;12.77;6.82;;;4.10;94.40;;;;;;5073339;28;20547;-82
2022/01/26 05:59:42;;;;;;;9.30;5.53;;;4.00;94.40;;;;;;5063792;28;20558;-81
2022/01/26 06:02:10;;;;;;;10.40;6.40;;;4.00;94.40;;;;;;5075071;28;20711;-82
2022/01/26 06:04:38;;;;;;;13.45;6.70;;;4.00;94.70;;;;;;5064840;28;20200;-82
2022/01/26 06:07:06;;;;;;;14.80;7.22;;;4.00;94.80;;;;;;5060406;28;20253;-80
2022/01/26 06:09:35;;;;;;;18.10;7.57;;;4.00;94.40;;;;;;5060555;28;20295;-80
2022/01/26 06:12:03;;;;;;;11.80;7.38;;;4.00;95.10;;;;;;5063530;28;20199;-81
2022/01/26 06:14:33;;;;;;;14.75;7.72;;;4.00;93.90;;;;;;5064704;28;20201;-83
2022/01/26 06:17:01;;;;;;;13.35;6.60;;;4.00;95.00;;;;;;5055110;28;20697;-79
2022/01/26 06:19:29;;;;;;;13.40;7.80;;;4.00;94.60;;;;;;5059126;28;20455;-81
2022/01/26 06:21:58;;;;;;;11.88;7.07;;;4.00;94.90;;;;;;5072078;28;20215;-81
2022/01/26 06:24:30;;;;;;;12.15;7.80;;;4.10;95.50;;;;;;5055531;28;20277;-80
2022/01/26 06:26:59;;;;;;;15.95;8.73;;;4.10;97.20;;;;;;5079955;28;20242;-81
2022/01/26 06:29:27;;;;;;;12.60;7.68;;;4.10;97.60;;;;;;5066330;28;20210;-81
2022/01/26 06:31:57;;;;;;;14.07;7.60;;;4.20;99.90;;;;;;5065003;28;20204;-81
2022/01/26 06:34:25;;;;;;;10.52;6.22;;;4.10;99.90;;;;;;5063863;28;20200;-81
2022/01/26 06:36:53;;;;;;;13.10;7.32;;;4.00;99.30;;;;;;5063530;28;20218;-82
2022/01/26 06:39:22;;;;;;;11.65;6.57;;;3.90;99.90;;;;;;5066689;28;20216;-82
2022/01/26 06:41:56;;;;;;;16.73;8.55;;;3.80;99.90;;;;;;5066342;28;20197;-81
2022/01/26 06:44:29;;;;;;;10.90;7.20;;;3.90;99.90;;;;;;5066708;28;20196;-81
2022/01/26 06:47:16;;;;;;;14.00;7.30;;;3.80;99.90;;;;;;5067402;28;20228;-81
2022/01/26 06:49:44;;;;;;;17.88;7.80;;;3.80;99.90;;;;;;5063501;28;20200;-81
2022/01/26 06:52:13;;;;;;;15.55;7.25;;;3.90;99.90;;;;;;5061514;28;20205;-83
2022/01/26 06:54:41;;;;;;;13.85;7.32;;;3.80;99.90;;;;;;5068022;28;20196;-81
2022/01/26 06:57:09;;;;;;;12.15;7.90;;;3.70;99.90;;;;;;5068375;28;20710;-81
2022/01/26 06:59:38;;;;;;;14.35;8.02;;;3.70;99.90;;;;;;5066595;28;20208;-82
2022/01/26 07:02:08;;;;;;;15.88;8.77;;;3.70;99.90;;;;;;5064446;28;20198;-81
2022/01/26 07:04:37;;;;;;;15.68;8.77;;;3.70;99.90;;;;;;5065550;28;20203;-80
2022/01/26 07:07:05;;;;;;;14.75;7.40;;;3.60;99.90;;;;;;5068032;28;20222;-81
2022/01/26 07:09:33;;;;;;;12.70;6.65;;;3.70;99.90;;;;;;5071244;28;20240;-80
2022/01/26 07:12:01;;;;;;;15.95;7.32;;;3.80;99.90;;;;;;5068174;28;20201;-82
2022/01/26 07:20:43;;;;;;;10.60;6.88;;;3.90;99.90;;;;;;5062549;28;20221;-82
2022/01/26 07:22:59;;;;;;;11.43;6.63;;;3.70;99.90;;;;;;5060840;28;20203;-82
2022/01/26 07:25:27;;;;;;;9.70;6.03;;;3.70;99.90;;;;;;5069179;28;20195;-81
2022/01/26 07:27:57;;;;;;;10.77;6.50;;;3.70;99.90;;;;;;5056344;28;20236;-81
2022/01/26 07:30:25;;;;;;;13.90;7.72;;;3.70;99.90;;;;;;5056680;28;20701;-81
2022/01/26 07:32:55;;;;;;;14.20;7.38;;;3.90;99.90;;;;;;5073662;28;20294;-82
2022/01/26 07:35:23;;;;;;;11.68;6.80;;;3.70;99.90;;;;;;5074353;28;20202;-83
2022/01/26 07:37:53;;;;;;;15.38;7.55;;;3.60;99.90;;;;;;5072106;28;20224;-80
2022/01/26 07:40:22;;;;;;;11.20;7.20;;;3.60;99.90;;;;;;5070930;28;20211;-80
2022/01/26 07:42:50;;;;;;;15.20;7.75;;;3.60;99.90;;;;;;5068164;28;20692;-80
2022/01/26 07:45:18;;;;;;;13.52;7.00;;;3.60;99.90;;;;;;5063426;28;20241;-80
2022/01/26 07:47:50;;;;;;;12.23;7.22;;;3.60;99.90;;;;;;5068217;28;20228;-81
2022/01/26 07:50:21;;;;;;;9.30;6.38;;;3.60;99.90;;;;;;5068447;28;20207;-80
2022/01/26 07:52:50;;;;;;;13.13;7.45;;;3.60;99.90;;;;;;5075344;28;20217;-80
2022/01/26 07:55:21;;;;;;;12.25;7.35;;;3.70;99.90;;;;;;5060079;28;20208;-81
2022/01/26 07:57:51;;;;;;;13.65;8.18;;;3.80;99.90;;;;;;5058793;28;20442;-80
2022/01/26 08:00:20;;;;;;;14.85;8.20;;;3.80;99.90;;;;;;5059392;28;20214;-81
2022/01/26 08:02:48;;;;;;;15.77;8.80;;;3.80;99.90;;;;;;5083197;28;20678;-80
2022/01/26 08:05:21;;;;;;;14.93;8.65;;;3.80;99.90;;;;;;5067458;28;20676;-81
2022/01/26 08:07:50;;;;;;;11.93;7.82;;;3.80;99.90;;;;;;5059574;28;20224;-80
2022/01/26 08:10:18;;;;;;;13.35;7.47;;;3.80;99.90;;;;;;5069647;28;20295;-82
2022/01/26 08:12:48;;;;;;;17.25;8.90;;;3.80;99.90;;;;;;5072617;28;20201;-80
2022/01/26 08:15:26;;;;;;;17.05;7.65;;;4.10;99.90;;;;;;5063943;28;20198;-81
2022/01/26 08:17:54;;;;;;;12.70;8.25;;;3.90;99.90;;;;;;5068103;28;20223;-82
2022/01/26 08:20:25;;;;;;;16.40;9.13;;;3.90;99.90;;;;;;5067212;28;21102;-82
2022/01/26 08:22:56;;;;;;;17.90;9.50;;;3.90;99.90;;;;;;5070867;28;20202;-81
2022/01/26 08:25:25;;;;;;;17.35;9.30;;;4.00;99.90;;;;;;5068421;28;20201;-81
2022/01/26 08:28:03;;;;;;;16.83;8.63;;;4.00;99.90;;;;;;5082116;28;20225;-81
2022/01/26 08:30:35;;;;;;;15.68;9.02;;;4.00;99.90;;;;;;5061498;28;20201;-81
2022/01/26 08:33:05;;;;;;;18.33;9.82;;;4.30;99.90;;;;;;5067582;28;20204;-82
2022/01/26 08:35:36;;;;;;;15.27;7.68;;;4.10;99.90;;;;;;5069493;28;20206;-81
2022/01/26 08:38:04;;;;;;;14.02;9.05;;;4.10;99.90;;;;;;5070458;28;20196;-81
2022/01/26 08:40:33;;;;;;;14.07;9.27;;;4.10;99.90;;;;;;5051880;28;20740;-81
2022/01/26 08:43:02;;;;;;;18.85;9.50;;;4.10;99.90;;;;;;5063387;28;20207;-80
2022/01/26 08:45:31;;;;;;;11.93;7.78;;;4.10;99.90;;;;;;5062096;28;20222;-81
2022/01/26 08:48:00;;;;;;;14.15;9.40;;;4.20;99.90;;;;;;5065560;28;20230;-83
2022/01/26 08:50:29;;;;;;;15.80;8.50;;;4.20;99.90;;;;;;5066801;28;20208;-81
2022/01/26 08:52:58;;;;;;;14.60;8.30;;;4.30;99.90;;;;;;5072925;28;20202;-81
2022/01/26 08:55:27;;;;;;;17.60;8.32;;;4.40;99.90;;;;;;5061167;28;20344;-81
2022/01/26 08:57:55;;;;;;;19.17;8.38;;;4.30;99.90;;;;;;5063653;28;20218;-80
2022/01/26 09:00:23;;;;;;;14.52;7.63;;;4.20;99.90;;;;;;5062087;28;20208;-81
2022/01/26 09:02:53;;;;;;;14.35;7.72;;;4.20;99.90;;;;;;5062641;28;20199;-81
2022/01/26 09:05:22;;;;;;;25.55;10.35;;;4.20;99.90;;;;;;5062762;28;20207;-80
2022/01/26 09:07:55;;;;;;;23.67;11.00;;;4.20;99.90;;;;;;5066530;28;20225;-81
2022/01/26 09:10:27;;;;;;;14.65;9.25;;;4.20;99.90;;;;;;5066974;28;20216;-80
2022/01/26 09:12:56;;;;;;;16.90;9.20;;;4.20;99.90;;;;;;5063398;28;20206;-79
2022/01/26 09:15:28;;;;;;;17.63;8.73;;;4.20;99.90;;;;;;5066572;28;20264;-80
2022/01/26 09:17:58;;;;;;;16.27;8.85;;;4.10;99.90;;;;;;5065042;28;20637;-80
2022/01/26 09:20:26;;;;;;;17.88;9.45;;;4.20;99.90;;;;;;5066265;28;20204;-81
2022/01/26 09:22:55;;;;;;;17.17;9.50;;;4.20;99.90;;;;;;5069238;28;20288;-80
2022/01/26 09:25:25;;;;;;;15.90;7.90;;;4.20;99.90;;;;;;5070782;28;20203;-81
2022/01/26 09:27:54;;;;;;;16.40;8.52;;;4.20;99.90;;;;;;5066146;28;20217;-82
2022/01/26 09:30:22;;;;;;;14.25;8.65;;;4.40;99.90;;;;;;5060952;28;20576;-81
2022/01/26 09:32:50;;;;;;;13.75;7.60;;;4.10;99.90;;;;;;5061369;28;20573;-81
2022/01/26 09:35:19;;;;;;;16.42;8.80;;;4.10;99.90;;;;;;5065464;28;20214;-81
2022/01/26 09:37:47;;;;;;;13.02;8.55;;;4.00;99.90;;;;;;5059173;28;20525;-81
2022/01/26 09:40:15;;;;;;;22.58;9.07;;;4.10;99.90;;;;;;5061314;28;20202;-80
2022/01/26 09:42:49;;;;;;;15.32;8.65;;;4.10;99.90;;;;;;5066848;28;20196;-81
2022/01/26 09:45:17;;;;;;;13.60;8.25;;;4.10;99.90;;;;;;5064450;28;20537;-82
2022/01/26 09:47:46;;;;;;;15.60;8.95;;;4.10;99.90;;;;;;5055425;28;20884;-81
2022/01/26 09:50:31;;;;;;;14.43;8.23;;;4.10;99.90;;;;;;5056382;28;20253;-79
2022/01/26 09:53:00;;;;;;;16.55;9.15;;;4.10;99.90;;;;;;5060884;28;21086;-81
2022/01/26 09:55:28;;;;;;;20.23;8.48;;;4.20;99.90;;;;;;5063094;28;20191;-82
2022/01/26 09:57:58;;;;;;;16.65;9.45;;;4.30;99.90;;;;;;5061824;28;20246;-81
2022/01/26 10:00:27;;;;;;;18.15;10.02;;;4.20;99.90;;;;;;5059341;28;20240;-80
2022/01/26 10:03:00;;;;;;;18.52;9.55;;;4.50;99.90;;;;;;5062712;28;21071;-81
2022/01/26 10:05:40;;;;;;;14.35;8.38;;;4.30;99.90;;;;;;5038476;28;20203;-80
2022/01/26 10:08:14;;;;;;;14.48;8.40;;;4.10;99.90;;;;;;5061680;28;20294;-81
2022/01/26 10:19:05;;;;;;;14.57;7.63;;;3.80;99.90;;;;;;5043373;28;20204;-81
2022/01/26 10:21:34;;;;;;;20.23;8.05;;;3.80;99.90;;;;;;5060226;28;20210;-82
2022/01/26 10:24:10;;;;;;;14.13;8.00;;;3.90;99.90;;;;;;5067453;28;20196;-80
2022/01/26 10:26:38;;;;;;;20.05;8.30;;;3.80;99.90;;;;;;5074270;28;20230;-81
2022/01/26 10:29:08;;;;;;;17.80;8.57;;;3.90;99.90;;;;;;5067334;28;20221;-80
2022/01/26 10:31:39;;;;;;;17.67;10.18;;;3.50;99.90;;;;;;5067983;28;20196;-80
2022/01/26 10:34:11;;;;;;;14.20;8.50;;;3.70;99.90;;;;;;5068638;28;20207;-79
2022/01/26 10:36:41;;;;;;;14.68;8.55;;;3.80;99.90;;;;;;5068050;28;20226;-81
2022/01/26 10:39:12;;;;;;;14.48;8.13;;;4.10;99.90;;;;;;5064183;28;20220;-82
2022/01/26 10:41:43;;;;;;;18.65;9.82;;;3.90;99.90;;;;;;5065348;28;20722;-80
2022/01/26 10:44:13;;;;;;;18.67;8.75;;;3.90;99.90;;;;;;5071139;28;20649;-81
2022/01/26 10:46:42;;;;;;;14.65;8.18;;;3.80;99.90;;;;;;5065554;28;20276;-80
2022/01/26 10:49:18;;;;;;;19.15;8.95;;;3.80;99.90;;;;;;5065894;28;20218;-81
2022/01/26 10:52:02;;;;;;;16.00;9.70;;;3.70;99.90;;;;;;5050369;28;20534;-80
2022/01/26 10:54:37;;;;;;;16.75;8.85;;;3.60;99.90;;;;;;5069644;28;20238;-79
2022/01/26 10:57:07;;;;;;;13.73;8.45;;;3.80;99.90;;;;;;5070489;28;20233;-82
2022/01/26 10:59:40;;;;;;;20.70;9.73;;;4.00;99.90;;;;;;5049420;28;20183;-81
2022/01/26 11:02:09;;;;;;;10.95;6.95;;;4.10;99.90;;;;;;5080985;28;20231;-80
2022/01/26 11:04:40;;;;;;;14.15;8.00;;;4.10;99.90;;;;;;5067177;28;20278;-81
2022/01/26 11:07:11;;;;;;;17.27;9.55;;;4.10;99.90;;;;;;5086292;28;20213;-79
2022/01/26 11:09:42;;;;;;;20.52;8.68;;;4.10;99.90;;;;;;5067966;28;20214;-79
2022/01/26 11:12:12;;;;;;;19.60;8.48;;;4.20;99.90;;;;;;5078265;28;20213;-81
2022/01/26 11:14:44;;;;;;;20.25;8.27;;;4.30;99.90;;;;;;5066319;28;20206;-80
2022/01/26 11:17:24;;;;;;;16.42;9.02;;;4.30;99.90;;;;;;5062447;28;20229;-80
2022/01/26 11:19:52;;;;;;;20.25;9.70;;;4.40;99.90;;;;;;5073723;28;20204;-81
2022/01/26 11:22:26;;;;;;;12.70;8.40;;;4.40;99.90;;;;;;5063473;28;20654;-81
2022/01/26 11:24:55;;;;;;;20.48;9.07;;;4.30;99.90;;;;;;5067739;28;20230;-82
2022/01/26 11:27:34;;;;;;;13.88;9.10;;;4.50;99.90;;;;;;5066807;28;20581;-81
2022/01/26 11:30:16;;;;;;;20.30;10.13;;;4.40;99.90;;;;;;5058411;28;20217;-81
2022/01/26 11:32:51;;;;;;;20.40;9.57;;;4.40;99.90;;;;;;5040034;28;20201;-81
2022/01/26 11:35:21;;;;;;;18.02;9.00;;;4.40;99.90;;;;;;5069829;28;20373;-81
2022/01/26 11:38:05;;;;;;;22.20;9.75;;;4.40;99.90;;;;;;5067454;28;20519;-81
2022/01/26 11:46:29;;;;;;;23.42;10.45;;;4.60;99.90;;;;;;5072362;28;20229;-82
2022/01/26 11:49:05;;;;;;;18.52;9.23;;;4.60;99.90;;;;;;5068183;28;20718;-82
2022/01/26 11:51:47;;;;;;;13.20;8.85;;;4.70;99.90;;;;;;5066601;28;20287;-81
2022/01/26 11:54:17;;;;;;;20.73;9.07;;;4.70;99.90;;;;;;5058617;28;20608;-81
2022/01/26 11:57:04;;;;;;;17.50;9.43;;;4.80;99.90;;;;;;5068348;28;20235;-81
2022/01/26 11:59:35;;;;;;;20.17;9.18;;;5.00;99.90;;;;;;5066499;28;20206;-81
2022/01/26 12:02:14;;;;;;;16.17;7.50;;;4.70;99.90;;;;;;5070780;28;20212;-81
2022/01/26 12:04:47;;;;;;;19.15;8.60;;;4.80;99.90;;;;;;5075623;28;20286;-84
2022/01/26 12:07:22;;;;;;;19.13;8.52;;;5.00;99.90;;;;;;5065465;28;20628;-79
2022/01/26 12:09:51;;;;;;;13.75;6.80;;;4.70;99.90;;;;;;5047396;28;20219;-79
2022/01/26 12:12:22;;;;;;;18.35;8.98;;;4.60;99.90;;;;;;5057845;28;20279;-80
2022/01/26 12:15:01;;;;;;;16.95;8.25;;;4.70;99.90;;;;;;5069663;28;20203;-80
2022/01/26 12:17:35;;;;;;;16.65;8.55;;;4.70;99.90;;;;;;5073911;28;20348;-81
2022/01/26 12:32:03;;;;;;;19.05;10.52;;;4.80;99.90;;;;;;5072272;28;20192;-79
2022/01/26 12:37:15;;;;;;;17.55;9.05;;;4.90;99.90;;;;;;5058704;28;20245;-79
2022/01/26 12:42:59;;;;;;;21.95;10.73;;;4.90;99.90;;;;;;5068366;28;20199;-81
2022/01/26 12:45:54;;;;;;;15.07;8.48;;;4.90;99.90;;;;;;5059062;28;20200;-79
2022/01/26 12:48:23;;;;;;;24.90;10.98;;;5.00;99.90;;;;;;5056384;28;20200;-80
2022/01/26 12:50:54;;;;;;;18.52;8.88;;;5.10;99.90;;;;;;5041092;28;20307;-79
2022/01/26 12:53:27;;;;;;;20.35;9.73;;;5.10;99.90;;;;;;5060759;28;20298;-81
2022/01/26 12:55:58;;;;;;;21.95;8.63;;;5.20;99.90;;;;;;5058738;28;20228;-80
2022/01/26 12:58:27;;;;;;;18.95;8.40;;;5.10;99.90;;;;;;5058360;28;20205;-79
2022/01/26 13:01:01;;;;;;;20.35;10.20;;;5.10;99.90;;;;;;5062662;28;20195;-78
2022/01/26 13:03:31;;;;;;;18.52;8.80;;;5.10;99.90;;;;;;5056209;28;20198;-79
2022/01/26 13:06:13;;;;;;;22.13;9.60;;;5.10;99.90;;;;;;5057565;28;20791;-81
2022/01/26 13:08:47;;;;;;;18.35;10.10;;;5.10;99.90;;;;;;5057687;28;20210;-80
2022/01/26 13:11:26;;;;;;;18.70;8.70;;;5.10;99.90;;;;;;5055661;28;20226;-77
2022/01/26 13:14:17;;;;;;;24.75;10.50;;;5.10;99.90;;;;;;5057540;28;20212;-79
2022/01/26 13:17:05;;;;;;;22.75;10.90;;;5.10;99.90;;;;;;5054601;28;20231;-81
2022/01/26 13:19:44;;;;;;;19.10;9.88;;;5.10;99.90;;;;;;5057790;28;20212;-79
2022/01/26 13:22:37;;;;;;;29.55;11.52;;;5.10;99.90;;;;;;5060765;28;20580;-80
2022/01/26 13:25:28;;;;;;;20.10;9.23;;;5.10;99.90;;;;;;5063580;28;20860;-83
2022/01/26 13:28:14;;;;;;;18.45;9.32;;;5.40;99.90;;;;;;5059492;28;20223;-81
2022/01/26 13:31:06;;;;;;;20.50;10.68;;;5.20;99.90;;;;;;5073969;28;20219;-82
2022/01/26 13:34:04;;;;;;;22.55;11.27;;;5.20;99.90;;;;;;5060349;28;20192;-80
2022/01/26 13:39:56;;;;;;;21.60;9.82;;;5.30;99.90;;;;;;5056793;28;20271;-79
2022/01/26 13:51:09;;;;;;;21.70;10.85;;;5.30;99.90;;;;;;5057160;28;20204;-80
2022/01/26 13:53:48;;;;;;;22.23;10.05;;;5.30;99.90;;;;;;5060858;28;20737;-80
2022/01/26 13:56:31;;;;;;;23.48;10.18;;;5.30;99.90;;;;;;5061984;28;20232;-78
2022/01/26 13:59:09;;;;;;;21.33;9.60;;;5.30;99.90;;;;;;5058135;28;20205;-80
2022/01/26 14:01:42;;;;;;;20.03;9.57;;;5.30;99.90;;;;;;5044981;28;20207;-81
2022/01/26 14:04:11;;;;;;;16.05;8.88;;;5.30;99.90;;;;;;5061618;28;20451;-80
2022/01/26 14:06:40;;;;;;;21.27;8.43;;;5.30;99.90;;;;;;5065314;28;20575;-79
2022/01/26 14:09:08;;;;;;;16.60;8.43;;;5.30;99.90;;;;;;5059507;28;20211;-80
2022/01/26 14:11:38;;;;;;;13.15;7.90;;;5.30;99.90;;;;;;5062062;28;20230;-80
2022/01/26 14:14:09;;;;;;;18.55;9.10;;;5.30;99.90;;;;;;5060118;28;20208;-80
2022/01/26 14:16:41;;;;;;;17.92;7.13;;;5.30;99.90;;;;;;5063960;28;20224;-82
2022/01/26 14:19:25;;;;;;;13.53;8.70;;;5.30;99.90;;;;;;5062999;28;20280;-78
2022/01/26 14:22:29;;;;;;;15.02;7.90;;;5.20;99.90;;;;;;5040157;28;20454;-79
2022/01/26 14:25:14;;;;;;;17.05;8.32;;;5.30;99.90;;;;;;5058027;28;20202;-78
2022/01/26 14:27:47;;;;;;;19.77;9.40;;;5.30;99.90;;;;;;5061096;28;20222;-79
2022/01/26 14:30:28;;;;;;;11.75;6.57;;;5.30;99.90;;;;;;5061901;28;20512;-80
2022/01/26 14:33:33;;;;;;;18.20;8.73;;;5.30;99.90;;;;;;5079162;28;20206;-79
2022/01/26 14:36:39;;;;;;;15.18;7.80;;;5.20;99.90;;;;;;5065340;28;20223;-79
2022/01/26 15:00:04;;;;;;;10.60;5.32;;;5.10;99.90;;;;;;5010249;28;20234;-79
2022/01/26 15:19:18;;;;;;;17.23;6.78;;;4.90;99.90;;;;;;5061665;28;20200;-79
2022/01/26 15:30:16;;;;;;;13.57;7.60;;;4.90;99.90;;;;;;5062532;28;20457;-80
2022/01/26 15:42:05;;;;;;;16.35;6.88;;;4.80;99.90;;;;;;4990793;28;20214;-79
2022/01/26 15:45:03;;;;;;;12.60;6.18;;;4.80;99.90;;;;;;5059514;28;20382;-79
2022/01/26 15:50:37;;;;;;;18.70;8.35;;;4.90;99.90;;;;;;5043707;28;20225;-79
2022/01/26 15:53:12;;;;;;;13.75;7.40;;;4.90;99.90;;;;;;5057294;28;20201;-78
2022/01/26 15:58:33;;;;;;;13.70;7.45;;;4.90;99.90;;;;;;5061896;28;20193;-77
2022/01/26 16:06:57;;;;;;;14.07;8.05;;;4.70;99.90;;;;;;5077115;28;20600;-79
2022/01/26 16:20:51;;;;;;;13.27;7.10;;;4.70;99.90;;;;;;5060271;28;20203;-81